Latest Weather Observations for Canterbury

IDN60901

Issued at 10:03 am EDT Tuesday 3 March 2015 (issued every 10 minutes, with the page automatically refreshed every 10 minutes)

About weather observations | Map of Sydney area stations | Latest observations for Sydney area | Other Formats
Station Details ID: 066194 Name: CANTERBURY RACECOURSE AWS Lat: -33.91 Lon: 151.11 Height: 3.0 m
Data from the previous 72 hours. | See also: Recent months at Canterbury
Date/Time
EDT
Tmp

°C
App
Tmp
°C
Dew
Point
°C
Rel
Hum
%
Delta-T

°C
Wind Press
QNH
hPa
Press
MSL
hPa
Rain
since
9 am
mm
Dir
 
Spd
km/h
Gust
km/h
Spd
kts
Gust
kts
03/10:00am 22.1 20.7 13.5 58 5.0 NNW 13 20 7 11 - - 0.0
03/09:30am 21.0 20.2 13.9 64 4.1 WNW 11 17 6 9 - - 0.0
03/09:00am 19.6 19.6 14.2 71 3.1 WNW 7 11 4 6 - - 0.0
03/08:30am 17.8 19.1 14.1 79 2.1 CALM 0 7 0 4 - - 0.0
03/08:00am 16.1 17.0 14.1 88 1.1 NW 2 6 1 3 - - 0.0
03/07:30am 14.4 15.5 13.4 94 0.6 CALM 0 0 0 0 - - 0.0
03/07:00am 13.6 14.4 12.7 94 0.5 CALM 0 0 0 0 - - 0.0
03/06:30am 13.2 13.9 12.1 93 0.6 CALM 0 0 0 0 - - 0.0
03/06:00am 13.5 14.3 12.4 93 0.6 CALM 0 0 0 0 - - 0.0
03/05:30am 13.6 14.4 12.7 94 0.5 CALM 0 0 0 0 - - 0.0
03/05:00am 13.5 14.2 12.2 92 0.7 CALM 0 0 0 0 - - 0.0
03/04:30am 13.8 14.6 12.7 93 0.6 CALM 0 0 0 0 - - 0.0
03/04:00am 14.0 14.9 12.9 93 0.6 CALM 0 0 0 0 - - 0.0
03/03:30am 13.9 14.7 12.5 91 0.8 CALM 0 0 0 0 - - 0.0
03/03:00am 14.2 15.1 12.8 91 0.8 CALM 0 0 0 0 - - 0.0
03/02:30am 13.9 14.5 11.9 88 1.1 CALM 0 0 0 0 - - 0.0
03/02:00am 14.6 15.5 13.0 90 0.9 CALM 0 0 0 0 - - 0.0
03/01:30am 14.6 15.4 12.6 88 1.1 CALM 0 0 0 0 - - 0.0
03/01:00am 15.1 16.0 13.0 87 1.2 CALM 0 0 0 0 - - 0.0
03/12:30am 15.4 16.4 13.1 86 1.3 CALM 0 0 0 0 - - 0.0
03/12:00am 15.8 16.8 13.1 84 1.5 CALM 0 0 0 0 - - 0.0
 
Date/Time
EDT
Tmp

°C
App
Tmp
°C
Dew
Point
°C
Rel
Hum
%
Delta-T

°C
Wind Press
QNH
hPa
Press
MSL
hPa
Rain
since
9 am
mm
Dir
 
Spd
km/h
Gust
km/h
Spd
kts
Gust
kts
02/11:30pm 16.1 17.1 13.2 83 1.6 CALM 0 0 0 0 - - 0.0
02/11:00pm 16.5 17.7 13.8 84 1.5 CALM 0 0 0 0 - - 0.0
02/10:30pm 15.8 16.6 12.5 81 1.8 CALM 0 0 0 0 - - 0.0
02/10:00pm 16.5 17.2 12.3 76 2.3 CALM 0 0 0 0 - - 0.0
02/09:30pm 17.0 17.7 12.3 74 2.6 CALM 0 0 0 0 - - 0.0
02/09:00pm 17.7 17.5 11.7 68 3.3 ENE 4 6 2 3 - - 0.0
02/08:30pm 18.8 18.2 11.6 63 4.0 ENE 6 7 3 4 - - 0.0
02/08:00pm 19.9 19.5 11.1 57 4.8 ENE 4 9 2 5 - - 0.0
02/07:30pm 20.4 18.4 11.6 57 4.9 ENE 13 19 7 10 - - 0.0
02/07:00pm 21.1 18.8 11.7 55 5.2 ENE 15 20 8 11 - - 0.0
02/06:30pm 21.4 19.5 11.7 54 5.4 E 13 19 7 10 - - 0.0
02/06:00pm 21.4 20.0 12.3 56 5.1 E 11 19 6 10 - - 0.0
02/05:30pm 21.5 19.7 12.1 55 5.3 E 13 20 7 11 - - 0.0
02/05:00pm 21.6 19.1 12.2 55 5.3 E 17 24 9 13 - - 0.0
02/04:30pm 21.6 19.2 12.5 56 5.2 E 17 24 9 13 - - 0.0
02/04:00pm 22.0 20.6 14.6 63 4.4 SE 15 28 8 15 - - 0.0
02/03:30pm 21.8 19.6 14.4 63 4.3 SE 19 28 10 15 - - 0.0
02/03:00pm 22.3 20.2 14.7 62 4.5 SE 19 28 10 15 - - 0.0
02/02:30pm 22.6 21.3 15.9 66 4.0 SE 17 30 9 16 - - 0.0
02/02:00pm 22.3 20.7 14.9 63 4.4 SE 17 28 9 15 - - 0.0
02/01:30pm 21.9 19.8 14.8 64 4.2 SSE 19 28 10 15 - - 0.0
02/01:00pm 22.0 20.1 14.1 61 4.6 SSE 17 28 9 15 - - 0.0
02/12:30pm 21.7 19.8 14.1 62 4.4 S 17 26 9 14 - - 0.0
02/12:00pm 21.5 19.1 13.7 61 4.5 SSE 19 28 10 15 - - 0.0
02/11:30am 21.7 19.5 13.3 59 4.8 SSE 17 24 9 13 - - 0.0
02/11:00am 21.6 19.8 13.2 59 4.8 SSE 15 26 8 14 - - 0.0
02/10:30am 21.1 19.0 13.5 62 4.4 SSE 17 26 9 14 - - 0.0
02/10:00am 21.0 18.0 12.7 59 4.7 S 20 30 11 16 - - 0.0
02/09:30am 20.4 18.7 12.6 61 4.4 SSW 13 19 7 10 - - 0.0
02/09:00am 19.2 18.3 12.5 65 3.7 WSW 9 15 5 8 - - 7.2
02/08:30am 17.7 16.1 11.5 67 3.4 W 11 13 6 7 - - 7.2
02/08:00am 16.9 15.6 11.2 69 3.1 W 9 11 5 6 - - 7.2
02/07:30am 16.6 15.2 10.9 69 3.0 W 9 15 5 8 - - 7.2
02/07:00am 16.3 14.9 11.0 71 2.8 W 9 13 5 7 - - 7.2
02/06:30am 16.1 15.0 10.6 70 2.9 WSW 7 9 4 5 - - 7.2
02/06:00am 16.7 15.3 10.8 68 3.2 W 9 13 5 7 - - 7.2
02/05:30am 17.4 16.0 10.8 65 3.5 WSW 9 13 5 7 - - 7.2
02/05:00am 17.9 15.7 10.8 63 3.8 SSW 13 24 7 13 - - 7.2
02/04:30am 18.4 16.7 11.2 63 3.9 SSW 11 17 6 9 - - 7.2
02/04:00am 18.8 16.8 11.6 63 4.0 SSW 13 19 7 10 - - 7.2
02/03:30am 19.4 17.7 12.4 64 3.9 SW 13 22 7 12 - - 7.2
02/03:00am 20.1 18.2 11.8 59 4.6 S 13 28 7 15 - - 7.2
02/02:30am 20.2 18.3 11.7 58 4.7 S 13 19 7 10 - - 7.2
02/02:00am 20.2 17.9 11.7 58 4.7 SSE 15 24 8 13 - - 7.2
02/01:30am 20.4 17.0 11.3 56 5.0 SSE 20 32 11 17 - - 7.2
02/01:00am 20.3 17.1 12.0 59 4.6 S 20 39 11 21 - - 7.2
02/12:30am 20.3 17.1 11.2 56 5.0 SSE 19 32 10 17 - - 7.2
02/12:00am 20.4 16.4 11.9 58 4.7 SSE 24 43 13 23 - - 7.2
 
Date/Time
EDT
Tmp

°C
App
Tmp
°C
Dew
Point
°C
Rel
Hum
%
Delta-T

°C
Wind Press
QNH
hPa
Press
MSL
hPa
Rain
since
9 am
mm
Dir
 
Spd
km/h
Gust
km/h
Spd
kts
Gust
kts
01/11:30pm 20.6 17.5 12.3 59 4.7 SSE 20 39 11 21 - - 7.2
01/11:00pm 20.7 17.9 12.7 60 4.5 SSE 19 32 10 17 - - 7.2
01/10:30pm 20.9 16.2 12.1 57 4.9 SSE 28 39 15 21 - - 7.2
01/10:00pm 21.2 16.9 12.1 56 5.1 SSE 26 41 14 22 - - 7.2
01/09:30pm 21.1 17.0 12.8 59 4.7 SSE 26 46 14 25 - - 7.2
01/09:05pm 21.1 16.8 13.3 61 4.5 SSE 28 46 15 25 - - 7.2
01/09:00pm 21.1 16.8 13.3 61 4.5 SSE 28 44 15 24 - - 7.2
01/08:37pm 21.0 16.9 13.9 64 4.1 SSE 28 46 15 25 - - 7.2
01/08:30pm 21.0 17.2 13.7 63 4.2 SSE 26 43 14 23 - - 7.2
01/08:01pm 21.0 16.9 13.9 64 4.1 SSE 28 52 15 28 - - 7.2
01/08:00pm 21.0 17.3 13.9 64 4.1 SSE 26 41 14 22 - - 7.2
01/07:30pm 20.7 17.4 16.1 75 2.8 SSE 28 48 15 26 - - 7.2
01/07:00pm 20.3 16.6 16.1 77 2.5 SSE 30 57 16 31 - - 7.2
01/06:31pm 20.4 17.5 17.0 81 2.1 SSE 28 50 15 27 - - 7.2
01/06:30pm 20.5 18.2 17.5 83 1.8 SSE 26 41 14 22 - - 7.2
01/06:01pm 20.9 18.6 18.5 86 1.5 SSE 28 46 15 25 - - 7.2
01/06:00pm 20.8 18.8 18.4 86 1.5 SSE 26 46 14 25 - - 7.2
01/05:36pm 20.6 18.5 18.9 90 1.1 S 28 50 15 27 - - 7.2
01/05:34pm 20.4 18.6 18.7 90 1.1 SSE 26 50 14 27 - - 7.2
01/05:31pm 20.4 18.2 18.7 90 1.1 SSE 28 50 15 27 - - 7.2
01/05:30pm 20.5 18.7 18.8 90 1.1 SSE 26 50 14 27 - - 7.2
01/05:27pm 20.5 18.3 18.8 90 1.1 SSE 28 50 15 27 - - 7.2
01/05:14pm 20.7 18.5 18.6 88 1.3 S 28 48 15 26 - - 6.6
01/05:05pm 21.1 18.4 18.5 85 1.6 SSW 30 48 16 26 - - 5.8
01/05:00pm 21.2 18.3 18.8 86 1.5 S 32 59 17 32 - - 5.8
01/04:38pm 21.6 19.9 19.7 89 1.2 SSE 28 50 15 27 - - 5.8
01/04:30pm 21.2 19.6 19.1 88 1.3 SSE 26 43 14 23 - - 5.8
01/04:14pm 21.0 19.8 18.4 85 1.6 SSE 22 44 12 24 - - 5.6
01/04:07pm 22.2 22.4 19.4 84 1.8 SSE 17 39 9 21 - - 3.8
01/04:00pm 23.0 19.8 18.5 76 2.8 SSE 33 59 18 32 - - 0.0
01/03:55pm 23.3 19.3 18.6 75 3.0 SSE 37 59 20 32 - - 0.0
01/03:36pm 25.9 24.1 17.0 58 5.5 SSW 22 80 12 43 - - 0.0
01/03:33pm 29.2 28.6 16.7 46 7.8 WSW 15 56 8 30 - - 0.0
01/03:30pm 34.1 34.2 15.5 32 11.6 W 9 15 5 8 - - 0.0
01/03:00pm 34.9 37.0 18.0 36 11.0 NW 4 11 2 6 - - 0.0
01/02:30pm 34.3 35.8 16.6 34 11.2 NW 4 9 2 5 - - 0.0
01/02:00pm 34.1 32.9 16.0 34 11.4 WNW 17 30 9 16 - - 0.0
01/01:30pm 33.6 33.2 18.1 39 10.0 NNW 17 30 9 16 - - 0.0
01/01:00pm 33.2 33.1 17.0 38 10.3 NW 13 24 7 13 - - 0.0
01/12:30pm 33.5 34.6 18.8 41 9.6 NNW 11 22 6 12 - - 0.0
01/12:00pm 32.5 33.7 19.0 44 8.8 NW 11 17 6 9 - - 0.0
01/11:30am 31.6 32.3 17.9 44 8.8 NW 11 17 6 9 - - 0.0
01/11:00am 30.1 32.1 19.2 52 7.1 N 7 15 4 8 - - 0.0
01/10:30am 28.5 30.1 18.3 54 6.5 WNW 7 11 4 6 - - 0.0
01/10:00am 27.0 29.2 19.1 62 5.1 NNW 6 13 3 7 - - 0.0
01/09:30am 25.0 27.2 19.1 70 3.8 NW 6 9 3 5 - - 0.0
01/09:00am 23.6 25.3 19.3 77 2.7 N 9 13 5 7 - - 0.0
01/08:30am 21.8 23.8 19.2 85 1.6 NNW 7 11 4 6 - - 0.0
01/08:00am 20.8 23.1 19.5 92 0.8 WNW 6 7 3 4 - - 0.0
01/07:30am 19.4 22.5 18.7 96 0.4 CALM 0 0 0 0 - - 0.0
01/07:00am 18.4 20.3 17.6 95 0.5 WNW 4 6 2 3 - - 0.0
01/06:30am 18.3 20.9 17.5 95 0.5 CALM 0 7 0 4 - - 0.0
01/06:19am 18.6 20.9 17.8 95 0.5 WNW 2 6 1 3 - - 0.0
01/06:00am 18.6 21.2 17.6 94 0.6 CALM 0 0 0 0 - - 0.0
01/05:54am 18.6 21.3 17.8 95 0.5 CALM 0 0 0 0 - - 0.0
01/05:30am 19.4 21.4 18.7 96 0.4 WNW 6 7 3 4 - - 0.0
01/05:19am 19.3 21.2 18.5 95 0.5 WNW 6 9 3 5 - - 0.0
01/05:00am 18.5 21.0 17.3 93 0.7 CALM 0 0 0 0 - - 0.0
01/04:59am 18.4 20.9 17.2 93 0.7 CALM 0 0 0 0 - - 0.0
01/04:51am 19.0 21.7 17.8 93 0.7 CALM 0 0 0 0 - - 0.0
01/04:34am 18.8 21.4 17.5 92 0.8 CALM 0 0 0 0 - - 0.0
01/04:30am 19.1 22.0 18.1 94 0.6 CALM 0 0 0 0 - - 0.0
01/04:00am 19.4 22.3 18.1 92 0.8 CALM 0 0 0 0 - - 0.0
01/03:30am 19.8 22.7 18.3 91 0.9 CALM 0 4 0 2 - - 0.0
01/03:00am 20.5 22.4 19.0 91 0.9 NE 7 9 4 5 - - 0.0
01/02:30am 19.5 21.4 18.5 94 0.6 NE 6 7 3 4 - - 0.0
01/02:00am 19.1 21.7 17.6 91 0.9 CALM 0 0 0 0 - - 0.0
01/01:30am 19.4 21.7 17.7 90 1.0 N 2 7 1 4 - - 0.0
01/01:00am 19.9 22.8 18.2 90 1.1 CALM 0 0 0 0 - - 0.0
01/12:30am 20.6 23.6 18.5 88 1.3 CALM 0 0 0 0 - - 0.0
01/12:00am 21.1 23.6 19.0 88 1.3 NW 4 7 2 4 - - 0.0
 
Date/Time
EDT
Tmp

°C
App
Tmp
°C
Dew
Point
°C
Rel
Hum
%
Delta-T

°C
Wind Press
QNH
hPa
Press
MSL
hPa
Rain
since
9 am
mm
Dir
 
Spd
km/h
Gust
km/h
Spd
kts
Gust
kts
28/11:30pm 21.8 24.1 18.6 82 2.0 NW 4 7 2 4 - - 0.0
28/11:00pm 22.5 24.0 18.9 80 2.3 N 9 9 5 5 - - 0.0
28/10:30pm 22.7 24.6 18.9 79 2.4 N 7 13 4 7 - - 0.0
28/10:00pm 23.0 24.4 18.7 77 2.7 N 9 15 5 8 - - 0.0
28/09:30pm 23.3 23.7 19.0 77 2.7 NNE 15 22 8 12 - - 0.0
28/09:00pm 23.4 23.5 19.1 77 2.7 NE 17 28 9 15 - - 0.0
28/08:30pm 23.4 23.8 19.1 77 2.7 NE 15 24 8 13 - - 0.0
28/08:00pm 23.5 23.6 19.2 77 2.7 NE 17 30 9 16 - - 0.0
28/07:30pm 23.9 24.0 19.2 75 3.0 NE 17 30 9 16 - - 0.0
28/07:00pm 24.5 24.6 19.1 72 3.4 ENE 17 24 9 13 - - 0.0
28/06:30pm 25.0 24.4 18.4 66 4.2 NE 19 30 10 16 - - 0.0
28/06:00pm 25.8 25.5 19.2 67 4.2 ENE 19 30 10 16 - - 0.0
28/05:30pm 25.9 25.2 18.6 64 4.6 NE 20 35 11 19 - - 0.0
28/05:00pm 26.2 25.3 18.1 61 5.1 NE 20 33 11 18 - - 0.0
28/04:30pm 26.2 24.9 17.3 58 5.6 NE 20 30 11 16 - - 0.0
28/04:00pm 26.8 25.7 17.8 57 5.7 ENE 20 30 11 16 - - 0.0
28/03:30pm 27.5 27.4 18.8 59 5.6 NE 17 28 9 15 - - 0.0
28/03:00pm 26.3 25.3 17.9 60 5.3 ENE 20 33 11 18 - - 0.0
28/02:30pm 26.1 25.2 16.9 57 5.7 NE 17 24 9 13 - - 0.0
28/02:00pm 27.0 26.8 19.4 63 4.9 ENE 19 28 10 15 - - 0.0
28/01:30pm 27.0 27.8 19.1 62 5.1 ENE 13 19 7 10 - - 0.0
28/01:00pm 26.7 27.0 18.0 59 5.5 E 13 22 7 12 - - 0.0
28/12:30pm 26.6 28.8 19.5 65 4.6 ENE 7 11 4 6 - - 0.0
28/12:00pm 25.5 26.6 17.9 63 4.8 NE 9 17 5 9 - - 0.0
28/11:30am 25.4 26.0 16.8 59 5.3 NNE 9 15 5 8 - - 0.0
28/11:00am 25.0 25.8 17.2 62 4.8 NE 9 15 5 8 - - 0.0
28/10:30am 24.6 26.1 17.6 65 4.4 NNW 6 11 3 6 - - 0.0

Latest Capital City Observations: Canberra | Sydney | Melbourne | Brisbane | Adelaide | Perth | Hobart | Darwin

Other Formats:

Comma delimited format used in spreadsheet applications
http://www.bom.gov.au/fwo/IDN60901/IDN60901.94766.axf

JavaScript Object Notation format (JSON) in row-major order
http://www.bom.gov.au/fwo/IDN60901/IDN60901.94766.json